Terminal Aerodrome Forecast
Issued by NWS

Home | Current Version | Previous Version | Text Only | Print | Product List | Glossary On
Versions: 1 2 3 4 5 6 7 8 9 10 11 12 13 14 15
000
FTUS42 TJSJ 270018 CCA
TAFJBQ
TAF COR
TJBQ 270018Z 2700/2724 09008KT P6SM VCSH SCT025 SCT050 SCT090
     FM270400 11003KT P6SM FEW035 SCT120
     FM271450 09010KT P6SM FEW022 SCT040
     FM271600 07012G19KT P6SM VCSH SCT025 BKN050
      AMD NOT SKED 2702/2711=

USA.gov is the U.S. government's official web portal to all federal, state and local government web resources and services.